Time;durP1;ratioP1;P1;durP2;ratioP2;P2;SDS_P1;SDS_P2;PMS_P1;PMS_P2;Temp;Humidity;BMP_temperature;BMP_pressure;BME280_temperature;BME280_humidity;BME280_pressure;Samples;Min_cycle;Max_cycle;Signal;HPM_P1;HPM_P2
2024/01/17 00:02:07;;;;;;;2.10;1.90;;;;;;;13.10;47.46;97503.29;105453;1256;72637;-38
2024/01/17 00:04:33;;;;;;;2.20;1.50;;;;;;;13.10;47.47;97507.59;105332;1258;62074;-38
2024/01/17 00:07:00;;;;;;;2.20;1.80;;;;;;;13.10;47.41;97506.14;105505;1257;62070;-40
2024/01/17 00:09:27;;;;;;;2.40;1.90;;;;;;;13.10;47.27;97509.90;105542;1259;75175;-38
2024/01/17 00:11:53;;;;;;;3.10;1.80;;;;;;;13.10;47.42;97511.04;105694;1258;65858;-40
2024/01/17 00:14:20;;;;;;;2.70;1.80;;;;;;;13.09;47.16;97509.50;105353;1258;72351;-38
2024/01/17 00:16:47;;;;;;;2.80;2.00;;;;;;;13.09;47.37;97511.34;105952;1258;62037;-39
2024/01/17 00:19:14;;;;;;;2.50;1.60;;;;;;;13.09;47.38;97513.71;105639;1254;62152;-39
2024/01/17 00:21:40;;;;;;;2.00;1.70;;;;;;;13.09;47.29;97518.77;105943;1255;75247;-39
2024/01/17 00:24:07;;;;;;;1.70;1.60;;;;;;;13.09;47.34;97519.36;105457;1255;66240;-39
2024/01/17 00:26:34;;;;;;;2.10;1.90;;;;;;;13.08;47.32;97523.52;105571;1256;72368;-39
2024/01/17 00:29:00;;;;;;;2.50;1.80;;;;;;;13.08;47.40;97526.73;105647;1258;62108;-39
2024/01/17 00:31:27;;;;;;;2.10;1.90;;;;;;;13.08;47.33;97530.02;105655;1257;62085;-39
2024/01/17 00:33:54;;;;;;;2.70;1.80;;;;;;;13.09;47.38;97535.27;105723;1258;75162;-39
2024/01/17 00:36:21;;;;;;;2.50;1.80;;;;;;;13.09;47.38;97532.52;105560;1259;65889;-39
2024/01/17 00:38:48;;;;;;;1.90;1.70;;;;;;;13.08;47.40;97538.24;105624;1256;72598;-39
2024/01/17 00:41:16;;;;;;;2.60;2.00;;;;;;;13.08;47.36;97538.02;105585;1258;62046;-38
2024/01/17 00:43:43;;;;;;;2.40;1.80;;;;;;;13.08;47.25;97542.92;105593;1256;62516;-38
2024/01/17 00:46:10;;;;;;;1.90;1.60;;;;;;;13.08;47.35;97549.53;105461;1257;62167;-39
2024/01/17 00:48:37;;;;;;;2.30;1.80;;;;;;;13.08;47.42;97555.21;105363;1256;66135;-39
2024/01/17 00:51:04;;;;;;;2.60;1.80;;;;;;;13.08;47.31;97566.42;105373;1256;72481;-39
2024/01/17 00:53:32;;;;;;;3.30;1.80;;;;;;;13.07;47.43;97566.58;105398;1258;62053;-39
2024/01/17 00:55:58;;;;;;;3.20;1.90;;;;;;;13.07;47.36;97564.58;105561;1258;62072;-39
2024/01/17 00:58:25;;;;;;;2.40;1.70;;;;;;;13.07;47.25;97571.00;105652;1259;75384;-39
2024/01/17 01:00:51;;;;;;;3.70;1.90;;;;;;;13.07;47.36;97572.52;105399;1258;66150;-39
2024/01/17 01:03:18;;;;;;;2.60;1.90;;;;;;;13.07;47.43;97580.04;105326;1258;72497;-39
2024/01/17 01:05:46;;;;;;;2.40;2.00;;;;;;;13.06;47.40;97579.61;105556;1258;62096;-39
2024/01/17 01:08:13;;;;;;;2.30;2.00;;;;;;;13.06;47.43;97580.14;105534;1254;62029;-39
2024/01/17 01:10:40;;;;;;;3.30;2.10;;;;;;;13.06;47.31;97582.39;105328;1259;75761;-38
2024/01/17 01:13:07;;;;;;;2.30;2.00;;;;;;;13.05;47.41;97572.69;105390;1258;66229;-39
2024/01/17 01:15:34;;;;;;;3.60;2.10;;;;;;;13.06;47.46;97572.45;105421;1256;139809;-40
2024/01/17 01:18:00;;;;;;;2.20;2.00;;;;;;;13.05;47.30;97574.71;105382;1258;62053;-40
2024/01/17 01:20:27;;;;;;;2.60;2.00;;;;;;;13.05;47.32;97570.96;105661;1257;62204;-38
2024/01/17 01:22:54;;;;;;;3.10;2.20;;;;;;;13.05;47.49;97571.12;105546;1258;74313;-39
2024/01/17 01:25:20;;;;;;;2.70;2.10;;;;;;;13.05;47.39;97569.73;105561;1258;63993;-39
2024/01/17 01:27:47;;;;;;;2.20;2.00;;;;;;;13.04;47.34;97565.39;105618;1258;72537;-39
2024/01/17 01:30:14;;;;;;;3.20;2.10;;;;;;;13.04;47.47;97562.10;105432;1258;62042;-40
2024/01/17 01:32:41;;;;;;;2.50;1.90;;;;;;;13.04;47.38;97562.11;105399;1258;62167;-39
2024/01/17 01:35:08;;;;;;;2.60;2.30;;;;;;;13.04;47.35;97559.70;105340;1255;75517;-39
2024/01/17 01:37:35;;;;;;;2.30;2.00;;;;;;;13.04;47.44;97562.55;105528;1259;66048;-39
2024/01/17 01:40:02;;;;;;;2.60;2.20;;;;;;;13.03;47.28;97562.98;105626;1254;72515;-39
2024/01/17 01:42:30;;;;;;;2.90;2.40;;;;;;;13.03;47.34;97565.73;105545;1258;62160;-39
2024/01/17 01:44:57;;;;;;;2.30;2.10;;;;;;;13.04;47.35;97566.70;105662;1256;62048;-39
2024/01/17 01:47:23;;;;;;;2.40;2.10;;;;;;;13.04;47.36;97576.05;105617;1257;75343;-39
2024/01/17 01:49:50;;;;;;;3.00;2.30;;;;;;;13.03;47.39;97578.11;105652;1260;64914;-39
2024/01/17 01:52:17;;;;;;;3.90;2.20;;;;;;;13.03;47.27;97573.33;105384;1254;73684;-40
2024/01/17 01:54:44;;;;;;;2.80;2.00;;;;;;;13.03;47.49;97573.00;105296;1260;62078;-40
2024/01/17 01:57:10;;;;;;;2.70;2.10;;;;;;;13.03;47.47;97573.92;105382;1257;62086;-41
2024/01/17 01:59:37;;;;;;;3.10;2.20;;;;;;;13.03;47.38;97577.09;105364;1258;75381;-39
2024/01/17 02:02:04;;;;;;;2.70;2.40;;;;;;;13.03;47.29;97580.91;105351;1255;66431;-39
2024/01/17 02:04:34;;;;;;;5.80;2.70;;;;;;;13.02;47.39;97584.75;105482;1256;72599;-40
2024/01/17 02:07:01;;;;;;;1.90;1.70;;;;;;;13.03;47.44;97587.91;105405;1259;62014;-39
2024/01/17 02:09:27;;;;;;;2.70;2.30;;;;;;;13.02;47.48;97585.35;105487;1260;62396;-39
2024/01/17 02:11:54;;;;;;;2.30;2.10;;;;;;;13.02;47.35;97583.29;105770;1259;62085;-40
2024/01/17 02:14:20;;;;;;;2.80;2.50;;;;;;;13.02;47.40;97584.52;105700;1259;66366;-39
2024/01/17 02:16:47;;;;;;;2.80;2.50;;;;;;;13.02;47.42;97583.52;105635;1259;72644;-39
2024/01/17 02:19:15;;;;;;;2.20;2.00;;;;;;;13.02;47.32;97584.19;105460;1255;62043;-40
2024/01/17 02:21:42;;;;;;;2.50;2.10;;;;;;;13.02;47.32;97589.02;105972;1259;62039;-40
2024/01/17 02:24:20;;;;;;;2.70;2.20;;;;;;;13.01;47.43;97587.25;105617;1256;75752;-39
2024/01/17 02:26:47;;;;;;;2.80;2.30;;;;;;;13.01;47.35;97587.09;105977;1254;66269;-39
2024/01/17 02:29:14;;;;;;;3.10;2.30;;;;;;;13.01;47.37;97588.83;105732;1254;73066;-39
2024/01/17 02:31:41;;;;;;;2.60;2.30;;;;;;;13.01;47.24;97591.08;105579;1254;62141;-39
2024/01/17 02:34:08;;;;;;;3.30;2.70;;;;;;;13.00;47.30;97593.19;105594;1254;62157;-39
2024/01/17 02:36:35;;;;;;;2.80;2.30;;;;;;;13.01;47.40;97595.66;105495;1258;75409;-39
2024/01/17 02:39:02;;;;;;;3.60;2.60;;;;;;;13.00;47.45;97596.80;105647;1260;64249;-39
2024/01/17 02:41:29;;;;;;;3.50;2.40;;;;;;;13.00;47.39;97590.58;105581;1256;72299;-39
2024/01/17 02:43:56;;;;;;;3.20;2.30;;;;;;;13.00;47.40;97593.64;105364;1257;62088;-39
2024/01/17 02:46:23;;;;;;;4.20;2.70;;;;;;;13.00;47.40;97591.17;105477;1259;62055;-39
2024/01/17 02:48:50;;;;;;;3.60;2.70;;;;;;;13.00;47.38;97590.11;105621;1260;75395;-37
2024/01/17 02:51:17;;;;;;;3.30;2.80;;;;;;;13.00;47.30;97585.42;105647;1258;66090;-39
2024/01/17 02:53:43;;;;;;;3.30;2.70;;;;;;;13.00;47.46;97585.32;105530;1254;72437;-39
2024/01/17 02:56:10;;;;;;;3.60;2.80;;;;;;;12.99;47.47;97589.30;105316;1258;61926;-39
2024/01/17 02:58:37;;;;;;;3.80;3.00;;;;;;;12.99;47.44;97589.15;105404;1257;62069;-40
2024/01/17 03:01:03;;;;;;;3.50;2.70;;;;;;;12.99;47.32;97586.52;105518;1259;74382;-39
2024/01/17 03:03:30;;;;;;;3.10;2.40;;;;;;;12.99;47.39;97586.68;105563;1258;65967;-39
2024/01/17 03:05:57;;;;;;;3.40;2.80;;;;;;;12.99;47.31;97588.73;105580;1259;72726;-39
2024/01/17 03:08:23;;;;;;;3.20;2.90;;;;;;;12.99;47.45;97587.34;105649;1254;62048;-39
2024/01/17 03:10:50;;;;;;;4.30;3.20;;;;;;;12.99;47.36;97587.12;105596;1258;61965;-39
2024/01/17 03:13:16;;;;;;;3.50;3.00;;;;;;;12.98;47.28;97586.86;105541;1260;75306;-39
2024/01/17 03:15:43;;;;;;;3.80;3.20;;;;;;;12.98;47.42;97583.91;105386;1259;65987;-39
2024/01/17 03:18:13;;;;;;;5.90;3.20;;;;;;;12.98;47.38;97588.00;105520;1258;62104;-39
2024/01/17 03:20:40;;;;;;;3.90;3.00;;;;;;;12.98;47.53;97595.15;105528;1258;62050;-39
2024/01/17 03:23:07;;;;;;;3.40;3.10;;;;;;;12.97;47.43;97596.52;105529;1258;62093;-39
2024/01/17 03:25:34;;;;;;;3.90;3.10;;;;;;;12.97;47.46;97597.42;105394;1258;75394;-39
2024/01/17 03:28:00;;;;;;;4.70;3.30;;;;;;;12.97;47.38;97595.44;105605;1258;65552;-39
2024/01/17 03:30:27;;;;;;;3.70;2.90;;;;;;;12.98;47.35;97598.66;105375;1259;72605;-40
2024/01/17 03:32:54;;;;;;;4.30;3.50;;;;;;;12.97;47.34;97599.48;105580;1259;61936;-39
2024/01/17 03:35:21;;;;;;;4.70;3.10;;;;;;;12.97;47.25;97601.80;105625;1258;62510;-39
2024/01/17 03:37:48;;;;;;;5.10;3.40;;;;;;;12.97;47.37;97602.71;105638;1255;62042;-38
2024/01/17 03:40:14;;;;;;;3.50;2.90;;;;;;;12.97;47.47;97610.14;105661;1259;66103;-39
2024/01/17 03:42:41;;;;;;;4.20;3.20;;;;;;;12.97;47.36;97610.84;105627;1265;72951;-39
2024/01/17 03:45:08;;;;;;;5.70;3.40;;;;;;;12.96;47.39;97606.75;105614;1268;61971;-39
2024/01/17 03:47:35;;;;;;;3.90;3.30;;;;;;;12.96;47.32;97613.64;105485;1260;62092;-39
2024/01/17 03:50:02;;;;;;;5.80;3.60;;;;;;;12.96;47.36;97610.73;105532;1261;75294;-39
2024/01/17 03:52:29;;;;;;;4.10;3.30;;;;;;;12.96;47.46;97610.05;105579;1267;65904;-39
2024/01/17 03:54:56;;;;;;;5.10;3.40;;;;;;;12.96;47.36;97606.94;105605;1259;72429;-39
2024/01/17 03:57:22;;;;;;;4.50;3.50;;;;;;;12.96;47.48;97612.10;105674;1258;62067;-38
2024/01/17 03:59:49;;;;;;;4.90;3.70;;;;;;;12.96;47.43;97608.27;105567;1259;62120;-39
2024/01/17 04:02:16;;;;;;;4.30;3.20;;;;;;;12.96;47.36;97605.10;105387;1259;75460;-38
2024/01/17 04:04:42;;;;;;;4.80;3.80;;;;;;;12.95;47.35;97606.23;105514;1259;62092;-39
2024/01/17 04:07:09;;;;;;;4.00;3.40;;;;;;;12.96;47.33;97609.48;105675;1259;73058;-38
2024/01/17 04:09:36;;;;;;;4.30;3.30;;;;;;;12.95;47.32;97611.46;105603;1259;62049;-38
2024/01/17 04:12:03;;;;;;;4.60;3.50;;;;;;;12.95;47.37;97612.52;105622;1254;62069;-39
2024/01/17 04:14:30;;;;;;;4.20;3.50;;;;;;;12.95;47.39;97618.83;105483;1256;75198;-39
2024/01/17 04:16:57;;;;;;;4.90;3.60;;;;;;;12.95;47.27;97619.44;105467;1258;64940;-39
2024/01/17 04:19:26;;;;;;;4.40;3.60;;;;;;;12.95;47.33;97621.96;105306;1259;72394;-39
2024/01/17 04:21:56;;;;;;;5.10;3.80;;;;;;;12.95;47.29;97621.11;105600;1259;62045;-39
2024/01/17 04:24:24;;;;;;;5.30;4.00;;;;;;;12.95;47.32;97619.51;105621;1255;62093;-39
2024/01/17 04:26:53;;;;;;;4.70;4.00;;;;;;;12.94;47.35;97617.48;105643;1260;74294;-39
2024/01/17 04:29:20;;;;;;;4.50;3.90;;;;;;;12.94;47.36;97620.38;105614;1260;66152;-39
2024/01/17 04:31:47;;;;;;;4.50;3.90;;;;;;;12.94;47.33;97618.87;105947;1259;72296;-39
2024/01/17 04:34:13;;;;;;;4.50;3.70;;;;;;;12.94;47.31;97622.31;105645;1259;61920;-39
2024/01/17 04:36:41;;;;;;;4.10;3.70;;;;;;;12.94;47.34;97625.38;106143;1254;61955;-39
2024/01/17 04:39:08;;;;;;;6.30;4.20;;;;;;;12.94;47.34;97624.31;105648;1260;75416;-39
2024/01/17 04:41:35;;;;;;;4.70;3.90;;;;;;;12.94;47.37;97622.37;105595;1259;66288;-39
2024/01/17 04:44:02;;;;;;;4.80;3.90;;;;;;;12.94;47.41;97619.46;105345;1259;72526;-39
2024/01/17 04:46:29;;;;;;;5.20;4.20;;;;;;;12.94;47.38;97620.77;105353;1259;62047;-39
2024/01/17 04:48:56;;;;;;;4.70;4.20;;;;;;;12.94;47.38;97618.45;105576;1259;62073;-39
2024/01/17 04:51:25;;;;;;;6.70;4.20;;;;;;;12.94;47.37;97618.45;105572;1261;75419;-39
2024/01/17 04:53:52;;;;;;;7.00;4.50;;;;;;;12.93;47.24;97619.91;105684;1267;65751;-39
2024/01/17 04:56:19;;;;;;;4.60;4.10;;;;;;;12.93;47.36;97621.90;105660;1254;72513;-38
2024/01/17 04:58:46;;;;;;;5.20;3.80;;;;;;;12.93;47.31;97616.96;105695;1260;62128;-39
2024/01/17 05:01:13;;;;;;;5.20;4.30;;;;;;;12.94;47.19;97612.38;105380;1259;62599;-39
2024/01/17 05:03:43;;;;;;;5.20;4.40;;;;;;;12.94;47.33;97613.30;105400;1259;75312;-39
2024/01/17 05:06:09;;;;;;;5.60;4.40;;;;;;;12.94;47.17;97616.69;105377;1255;64089;-39
2024/01/17 05:08:36;;;;;;;5.10;4.10;;;;;;;12.93;47.13;97616.65;105466;1255;72567;-39
2024/01/17 05:11:03;;;;;;;4.90;3.80;;;;;;;12.93;47.19;97620.11;105576;1258;62047;-38
2024/01/17 05:13:29;;;;;;;6.60;4.10;;;;;;;12.92;47.28;97621.23;105480;1259;62047;-39
2024/01/17 05:15:56;;;;;;;4.80;4.30;;;;;;;12.92;47.31;97620.92;105297;1259;75147;-39
2024/01/17 05:18:23;;;;;;;5.80;4.00;;;;;;;12.92;47.26;97622.85;105591;1260;62169;-39
2024/01/17 05:20:50;;;;;;;5.80;4.10;;;;;;;12.92;47.29;97632.37;105433;1258;72323;-38
2024/01/17 05:23:17;;;;;;;6.70;4.50;;;;;;;12.92;47.28;97635.38;105449;1260;62041;-39
2024/01/17 05:25:43;;;;;;;6.20;4.70;;;;;;;12.91;47.36;97635.39;105285;1259;62042;-39
2024/01/17 05:28:10;;;;;;;5.90;4.50;;;;;;;12.92;47.21;97631.89;105417;1259;75276;-39
2024/01/17 05:30:37;;;;;;;5.80;4.70;;;;;;;12.91;47.19;97631.25;105556;1259;67013;-40
2024/01/17 05:33:04;;;;;;;5.00;4.00;;;;;;;12.92;47.24;97630.34;105426;1259;72601;-40
2024/01/17 05:35:31;;;;;;;5.60;4.10;;;;;;;12.91;47.18;97638.39;105392;1259;62050;-39
2024/01/17 05:37:59;;;;;;;7.20;4.70;;;;;;;12.91;47.19;97636.09;105461;1254;62363;-40
2024/01/17 05:40:26;;;;;;;5.70;4.20;;;;;;;12.92;47.29;97633.34;105332;1259;75134;-39
2024/01/17 05:42:53;;;;;;;5.30;4.50;;;;;;;12.91;47.27;97629.16;105584;1260;66503;-39
2024/01/17 05:45:19;;;;;;;5.70;4.50;;;;;;;12.91;47.31;97623.94;105545;1260;72413;-39
2024/01/17 05:47:46;;;;;;;6.00;4.30;;;;;;;12.92;47.13;97629.95;105499;1258;62059;-39
2024/01/17 05:50:13;;;;;;;6.10;4.50;;;;;;;12.92;47.17;97635.02;105583;1254;62012;-39
2024/01/17 05:52:41;;;;;;;6.30;4.40;;;;;;;12.91;47.29;97629.64;105694;1261;74198;-39
2024/01/17 05:55:08;;;;;;;5.60;4.70;;;;;;;12.91;47.12;97632.89;105652;1261;65915;-39
2024/01/17 05:57:38;;;;;;;6.90;4.30;;;;;;;12.91;47.20;97632.60;105563;1260;72627;-39
2024/01/17 06:00:08;;;;;;;5.60;4.70;;;;;;;12.91;47.23;97634.13;105469;1260;62055;-39
2024/01/17 06:02:38;;;;;;;5.50;4.30;;;;;;;12.91;47.09;97639.73;105692;1259;62136;-39
2024/01/17 06:05:07;;;;;;;6.30;5.00;;;;;;;12.90;47.02;97642.27;105633;1259;75346;-39
2024/01/17 06:07:34;;;;;;;7.10;4.60;;;;;;;12.90;47.05;97646.55;105672;1254;65537;-39
2024/01/17 06:10:00;;;;;;;5.60;4.40;;;;;;;12.90;47.07;97653.61;105672;1258;72683;-39
2024/01/17 06:12:27;;;;;;;6.70;4.40;;;;;;;12.90;47.04;97654.91;105695;1260;62099;-39
2024/01/17 06:14:54;;;;;;;6.80;4.80;;;;;;;12.90;47.05;97657.28;105582;1255;62267;-39
2024/01/17 06:17:21;;;;;;;6.50;4.50;;;;;;;12.90;47.17;97662.75;105425;1254;75473;-39
2024/01/17 06:19:47;;;;;;;8.50;5.00;;;;;;;12.90;47.14;97661.73;105496;1260;65825;-39
2024/01/17 06:22:18;;;;;;;5.50;4.50;;;;;;;12.90;47.17;97661.08;105593;1254;72625;-39
2024/01/17 06:24:45;;;;;;;6.20;4.70;;;;;;;12.90;47.26;97664.21;105489;1254;62508;-39
2024/01/17 06:27:14;;;;;;;5.30;4.80;;;;;;;12.90;47.24;97664.30;105461;1254;62051;-39
2024/01/17 06:29:44;;;;;;;6.10;4.40;;;;;;;12.90;47.11;97659.78;105622;1254;74210;-39
2024/01/17 06:32:11;;;;;;;6.00;4.70;;;;;;;12.90;47.13;97652.38;105665;1260;65754;-39
2024/01/17 06:34:39;;;;;;;6.40;4.70;;;;;;;12.90;47.05;97648.23;105424;1254;72394;-39
2024/01/17 06:37:06;;;;;;;4.70;4.20;;;;;;;12.90;47.07;97647.25;105399;1254;61983;-38
2024/01/17 06:39:33;;;;;;;6.70;4.70;;;;;;;12.91;47.17;97643.11;105295;1255;62162;-40
2024/01/17 06:42:00;;;;;;;6.90;4.70;;;;;;;12.90;47.22;97646.09;105434;1254;75196;-39
2024/01/17 06:44:27;;;;;;;6.70;4.90;;;;;;;12.90;47.09;97648.84;105640;1254;66199;-39
2024/01/17 06:46:55;;;;;;;6.70;4.90;;;;;;;12.90;47.29;97645.06;105663;1255;72403;-39
2024/01/17 06:49:22;;;;;;;5.50;4.70;;;;;;;12.90;47.18;97637.33;105556;1259;62035;-40
2024/01/17 06:51:49;;;;;;;5.80;5.00;;;;;;;12.90;47.14;97631.95;105721;1255;62403;-40
2024/01/17 06:54:16;;;;;;;5.90;4.60;;;;;;;12.90;47.13;97631.02;105568;1254;75178;-38
2024/01/17 06:56:42;;;;;;;6.90;4.90;;;;;;;12.90;47.02;97619.36;105470;1258;66114;-39
2024/01/17 06:59:10;;;;;;;6.10;5.10;;;;;;;12.90;47.21;97616.52;105431;1258;73614;-40
2024/01/17 07:01:38;;;;;;;5.90;4.60;;;;;;;12.91;47.21;97614.92;106015;1260;61993;-39
2024/01/17 07:04:05;;;;;;;6.80;5.20;;;;;;;12.91;47.20;97621.69;105452;1254;62068;-39
2024/01/17 07:06:33;;;;;;;6.30;5.10;;;;;;;12.91;47.04;97628.36;105266;1259;75344;-39
2024/01/17 07:09:00;;;;;;;6.30;5.10;;;;;;;12.92;47.14;97622.27;105531;1261;66044;-38
2024/01/17 07:11:26;;;;;;;5.70;4.80;;;;;;;12.92;47.14;97624.42;105578;1261;72460;-39
2024/01/17 07:13:53;;;;;;;7.80;5.30;;;;;;;12.92;47.12;97625.81;105477;1261;62056;-39
2024/01/17 07:16:20;;;;;;;6.30;4.90;;;;;;;12.92;47.21;97622.65;105381;1259;62041;-39
2024/01/17 07:18:47;;;;;;;5.80;4.70;;;;;;;12.92;47.09;97616.52;105605;1259;75082;-39
2024/01/17 07:21:14;;;;;;;5.50;4.80;;;;;;;12.92;47.10;97620.91;105400;1254;65793;-39
2024/01/17 07:23:42;;;;;;;6.40;5.20;;;;;;;12.92;47.17;97617.15;105427;1254;72324;-38
2024/01/17 07:26:09;;;;;;;7.60;5.00;;;;;;;12.93;47.13;97614.02;105494;1255;62036;-39
2024/01/17 07:28:35;;;;;;;6.00;5.10;;;;;;;12.93;47.13;97609.50;105438;1254;62096;-39
2024/01/17 07:31:02;;;;;;;6.20;4.90;;;;;;;12.93;47.17;97603.59;105405;1258;75233;-41
2024/01/17 07:33:29;;;;;;;9.90;5.20;;;;;;;12.93;47.15;97610.13;105442;1254;64883;-39
2024/01/17 07:35:56;;;;;;;7.20;5.40;;;;;;;12.94;47.12;97618.30;105407;1254;71126;-40
2024/01/17 07:38:23;;;;;;;7.00;5.50;;;;;;;12.94;47.11;97618.23;105490;1258;62159;-40
2024/01/17 07:40:50;;;;;;;6.40;5.10;;;;;;;12.94;47.16;97615.32;105541;1258;62144;-42
2024/01/17 07:43:17;;;;;;;7.10;5.10;;;;;;;12.95;47.04;97617.89;105604;1259;75152;-40
2024/01/17 07:45:43;;;;;;;7.40;5.10;;;;;;;12.95;47.20;97622.98;105578;1257;65706;-39
2024/01/17 07:48:11;;;;;;;7.00;5.20;;;;;;;12.95;47.06;97623.98;105536;1254;72579;-39
2024/01/17 07:50:39;;;;;;;7.40;5.80;;;;;;;12.96;47.00;97625.15;105518;1257;62041;-40
2024/01/17 07:53:07;;;;;;;7.10;5.00;;;;;;;12.96;47.07;97622.95;105529;1254;62035;-39
2024/01/17 07:55:34;;;;;;;6.30;5.20;;;;;;;12.97;47.16;97618.14;105539;1254;76805;-39
2024/01/17 07:58:01;;;;;;;6.90;5.40;;;;;;;12.97;47.05;97617.06;105591;1257;66152;-39
2024/01/17 08:00:28;;;;;;;7.20;5.20;;;;;;;12.98;47.03;97616.12;105553;1254;73494;-39
2024/01/17 08:02:55;;;;;;;5.60;5.00;;;;;;;12.98;47.15;97617.40;105554;1260;61945;-40
2024/01/17 08:05:22;;;;;;;6.60;5.10;;;;;;;12.98;47.04;97615.13;105481;1255;62092;-38
2024/01/17 08:07:49;;;;;;;6.30;5.00;;;;;;;12.98;46.94;97613.67;105484;1254;75472;-38
2024/01/17 08:10:16;;;;;;;9.50;5.30;;;;;;;12.99;47.06;97611.78;105440;1260;67038;-39
2024/01/17 08:12:44;;;;;;;6.90;5.30;;;;;;;12.99;47.05;97604.48;105514;1254;72609;-39
2024/01/17 08:15:11;;;;;;;7.50;5.10;;;;;;;12.99;47.14;97600.81;105433;1261;62053;-39
2024/01/17 08:17:38;;;;;;;6.70;5.20;;;;;;;13.00;47.01;97593.96;105504;1254;62261;-39
2024/01/17 08:20:07;;;;;;;7.80;5.40;;;;;;;13.01;46.95;97588.83;105464;1254;75167;-39
2024/01/17 08:22:34;;;;;;;6.60;5.20;;;;;;;13.01;47.04;97583.98;105685;1257;66233;-38
2024/01/17 08:25:01;;;;;;;6.20;5.00;;;;;;;13.01;47.21;97582.95;105800;1254;72982;-38
2024/01/17 08:27:28;;;;;;;7.70;5.60;;;;;;;13.02;47.08;97578.45;105666;1257;62050;-38
2024/01/17 08:29:54;;;;;;;7.80;5.00;;;;;;;13.03;47.14;97581.17;105548;1254;62044;-39
2024/01/17 08:32:21;;;;;;;6.60;5.20;;;;;;;13.04;46.96;97580.84;105564;1257;76044;-39
2024/01/17 08:34:48;;;;;;;7.10;5.60;;;;;;;13.06;47.06;97582.60;105498;1257;67257;-37
2024/01/17 08:37:15;;;;;;;6.80;5.60;;;;;;;13.06;47.08;97578.64;105467;1257;73503;-37
2024/01/17 08:39:43;;;;;;;9.40;5.60;;;;;;;13.07;47.01;97580.00;105483;1258;62029;-37
2024/01/17 08:42:13;;;;;;;6.70;5.50;;;;;;;13.08;46.93;97574.76;105456;1254;62119;-40
2024/01/17 08:44:42;;;;;;;8.20;5.90;;;;;;;13.09;47.00;97572.38;105365;1258;76156;-41
2024/01/17 08:47:09;;;;;;;6.20;5.30;;;;;;;13.10;47.00;97569.38;105474;1258;66224;-38
2024/01/17 08:49:39;;;;;;;6.70;5.60;;;;;;;13.11;46.95;97566.34;105471;1254;73211;-38
2024/01/17 08:52:07;;;;;;;8.30;5.50;;;;;;;13.12;47.01;97567.92;105504;1254;62165;-39
2024/01/17 08:54:37;;;;;;;8.70;5.80;;;;;;;13.12;46.93;97564.86;105647;1259;62539;-39
2024/01/17 08:57:04;;;;;;;7.80;5.90;;;;;;;13.13;47.00;97562.14;105569;1255;74430;-41
2024/01/17 08:59:33;;;;;;;8.30;5.90;;;;;;;13.14;46.98;97563.88;105682;1254;66298;-38
2024/01/17 09:02:00;;;;;;;7.60;5.80;;;;;;;13.15;47.01;97560.61;105557;1254;72470;-40
2024/01/17 09:04:28;;;;;;;7.60;6.00;;;;;;;13.16;46.93;97558.81;105430;1258;62150;-38
2024/01/17 09:06:55;;;;;;;8.10;5.60;;;;;;;13.17;46.87;97558.78;105582;1254;61962;-40
2024/01/17 09:09:24;;;;;;;7.90;5.70;;;;;;;13.18;46.82;97551.05;105388;1258;76171;-39
2024/01/17 09:11:53;;;;;;;7.50;5.80;;;;;;;13.18;46.84;97548.47;105689;1254;66405;-39
2024/01/17 09:14:21;;;;;;;6.90;5.30;;;;;;;13.20;46.89;97544.22;105214;1260;73637;-39
2024/01/17 09:16:51;;;;;;;6.80;5.50;;;;;;;13.20;46.91;97545.16;105879;1254;62138;-39
2024/01/17 09:19:20;;;;;;;7.30;5.50;;;;;;;13.21;46.91;97541.61;105625;1259;62059;-38
2024/01/17 09:21:47;;;;;;;10.00;5.80;;;;;;;13.23;46.86;97541.13;105879;1254;74522;-38
2024/01/17 09:24:14;;;;;;;7.30;5.60;;;;;;;13.23;46.87;97537.61;105441;1258;67194;-39
2024/01/17 09:26:41;;;;;;;9.00;5.60;;;;;;;13.24;46.93;97537.35;106001;1256;71416;-39
2024/01/17 09:29:08;;;;;;;7.50;5.80;;;;;;;13.25;46.77;97532.77;105510;1254;62083;-40
2024/01/17 09:31:35;;;;;;;7.00;5.20;;;;;;;13.26;47.04;97531.82;105633;1255;62070;-38
2024/01/17 09:34:02;;;;;;;7.30;5.30;;;;;;;13.26;46.81;97530.61;105665;1253;76460;-37
2024/01/17 09:36:29;;;;;;;6.30;5.50;;;;;;;13.28;46.94;97522.83;106151;1254;67285;-39
2024/01/17 09:38:57;;;;;;;6.40;5.10;;;;;;;13.29;46.89;97527.52;105405;1254;73452;-39
2024/01/17 09:41:24;;;;;;;6.00;5.40;;;;;;;13.30;46.87;97527.64;105465;1254;62079;-39
2024/01/17 09:43:51;;;;;;;8.30;5.50;;;;;;;13.32;46.73;97523.77;105568;1256;62259;-38
2024/01/17 09:46:18;;;;;;;7.10;5.70;;;;;;;13.33;46.95;97523.67;105599;1254;75710;-39
2024/01/17 09:48:45;;;;;;;6.60;5.40;;;;;;;13.34;46.79;97516.20;105542;1259;65900;-38
2024/01/17 09:51:15;;;;;;;6.60;5.30;;;;;;;13.36;46.85;97510.89;105237;1254;73775;-39
2024/01/17 09:53:44;;;;;;;7.30;5.60;;;;;;;13.37;46.82;97502.82;105634;1254;62065;-39
2024/01/17 09:56:11;;;;;;;7.60;5.30;;;;;;;13.39;46.90;97496.42;105858;1254;62155;-36
2024/01/17 09:58:39;;;;;;;7.30;5.30;;;;;;;13.40;46.73;97493.39;105567;1257;76462;-39
2024/01/17 10:01:06;;;;;;;6.60;5.10;;;;;;;13.41;46.75;97487.63;105380;1256;66873;-40
2024/01/17 10:03:34;;;;;;;8.00;5.70;;;;;;;13.44;46.81;97485.88;105247;1253;72491;-38
2024/01/17 10:06:02;;;;;;;5.90;5.20;;;;;;;13.45;46.74;97479.06;105579;1259;62048;-38
2024/01/17 10:08:29;;;;;;;6.70;5.30;;;;;;;13.46;46.66;97473.59;105452;1254;62451;-39
2024/01/17 10:10:56;;;;;;;6.00;5.10;;;;;;;13.47;46.72;97469.31;105488;1257;76230;-39
2024/01/17 10:13:23;;;;;;;7.20;5.60;;;;;;;13.47;46.74;97467.19;105331;1253;67943;-39
2024/01/17 10:15:49;;;;;;;10.20;5.50;;;;;;;13.49;46.61;97463.27;105558;1253;73048;-38
2024/01/17 10:18:18;;;;;;;7.40;5.40;;;;;;;13.50;46.76;97460.41;105759;1257;62037;-39
2024/01/17 10:20:45;;;;;;;6.50;5.20;;;;;;;13.51;46.63;97460.76;105550;1253;62159;-40
2024/01/17 10:23:12;;;;;;;8.40;5.30;;;;;;;13.52;46.70;97460.40;105553;1257;76350;-38
2024/01/17 10:25:40;;;;;;;6.30;5.30;;;;;;;13.54;46.60;97461.02;105411;1259;66192;-39
2024/01/17 10:28:07;;;;;;;7.00;5.40;;;;;;;13.55;46.60;97455.98;105520;1253;73314;-39
2024/01/17 10:30:36;;;;;;;6.20;5.30;;;;;;;13.56;46.60;97462.27;105576;1257;62000;-39
2024/01/17 10:33:03;;;;;;;8.00;5.60;;;;;;;13.57;46.67;97451.91;105703;1253;62068;-39
2024/01/17 10:35:30;;;;;;;6.30;5.10;;;;;;;13.58;46.56;97450.58;105337;1254;77358;-39
2024/01/17 10:37:57;;;;;;;7.30;5.60;;;;;;;13.59;46.61;97453.44;105457;1253;66728;-40
2024/01/17 10:40:24;;;;;;;6.70;5.30;;;;;;;13.60;46.66;97442.64;106727;1254;73550;-38
2024/01/17 10:43:10;;;;;;;5.40;4.40;;;;;;;13.60;46.56;97445.52;105626;1257;62051;-39
2024/01/17 10:45:39;;;;;;;6.50;5.20;;;;;;;13.62;46.53;97443.66;105509;1253;62124;-40
2024/01/17 10:48:07;;;;;;;6.40;5.20;;;;;;;13.62;46.62;97444.83;105638;1256;76164;-38
2024/01/17 10:50:34;;;;;;;5.40;4.90;;;;;;;13.63;46.53;97442.17;105580;1253;67100;-40
2024/01/17 10:53:04;;;;;;;7.10;5.40;;;;;;;13.63;46.63;97435.57;105514;1253;72549;-39
2024/01/17 10:55:35;;;;;;;6.50;5.20;;;;;;;13.64;46.56;97430.76;105507;1253;61987;-40
2024/01/17 10:58:11;;;;;;;6.80;5.20;;;;;;;13.65;46.49;97425.46;105519;1253;62065;-39
2024/01/17 11:00:39;;;;;;;6.00;5.10;;;;;;;13.65;46.52;97421.48;105434;1257;76256;-39
2024/01/17 11:03:08;;;;;;;7.20;5.30;;;;;;;13.65;46.62;97412.36;105525;1258;64872;-40
2024/01/17 11:05:47;;;;;;;6.00;5.10;;;;;;;13.65;46.45;97400.27;105186;1254;73791;-39
2024/01/17 11:08:14;;;;;;;6.10;4.70;;;;;;;13.65;46.53;97396.29;105517;1258;62068;-40
2024/01/17 11:10:43;;;;;;;8.30;5.10;;;;;;;13.65;46.54;97396.05;105438;1254;62167;-39
2024/01/17 11:13:17;;;;;;;6.10;4.90;;;;;;;13.65;46.42;97388.14;105590;1256;75271;-40
2024/01/17 11:15:44;;;;;;;6.90;5.00;;;;;;;13.65;46.51;97382.54;105581;1254;65871;-40
2024/01/17 11:18:12;;;;;;;5.30;4.80;;;;;;;13.66;46.57;97370.34;105476;1254;73709;-39
2024/01/17 11:20:40;;;;;;;6.00;4.90;;;;;;;13.67;46.51;97363.44;105456;1258;62046;-38
2024/01/17 11:23:08;;;;;;;5.30;4.40;;;;;;;13.67;46.50;97361.44;105486;1254;62165;-39
2024/01/17 11:26:10;;;;;;;6.00;5.10;;;;;;;13.67;46.49;97362.30;105461;1254;76458;-39